sensor_id;sensor_type;location;lat;lon;timestamp;P1;durP1;ratioP1;P2;durP2;ratioP2
14789;SDS011;7486;51.010;10.366;2024-02-26T00:00:46;7.00;;;5.53;;
14789;SDS011;7486;51.010;10.366;2024-02-26T00:03:32;5.63;;;4.70;;
14789;SDS011;7486;51.010;10.366;2024-02-26T00:06:18;6.03;;;5.03;;
14789;SDS011;7486;51.010;10.366;2024-02-26T00:09:03;5.03;;;4.43;;
14789;SDS011;7486;51.010;10.366;2024-02-26T00:11:49;5.63;;;4.50;;
14789;SDS011;7486;51.010;10.366;2024-02-26T00:14:34;5.57;;;4.47;;
14789;SDS011;7486;51.010;10.366;2024-02-26T00:17:19;4.90;;;4.23;;
14789;SDS011;7486;51.010;10.366;2024-02-26T00:20:05;4.77;;;4.20;;
14789;SDS011;7486;51.010;10.366;2024-02-26T00:22:51;4.50;;;3.83;;
14789;SDS011;7486;51.010;10.366;2024-02-26T00:25:36;3.87;;;3.47;;
14789;SDS011;7486;51.010;10.366;2024-02-26T00:28:22;4.57;;;4.10;;
14789;SDS011;7486;51.010;10.366;2024-02-26T00:31:07;5.03;;;4.00;;
14789;SDS011;7486;51.010;10.366;2024-02-26T00:33:53;3.83;;;3.53;;
14789;SDS011;7486;51.010;10.366;2024-02-26T00:36:38;5.93;;;4.10;;
14789;SDS011;7486;51.010;10.366;2024-02-26T00:39:24;4.93;;;4.07;;
14789;SDS011;7486;51.010;10.366;2024-02-26T00:42:09;4.87;;;3.83;;
14789;SDS011;7486;51.010;10.366;2024-02-26T00:44:55;5.13;;;4.63;;
14789;SDS011;7486;51.010;10.366;2024-02-26T00:47:40;4.87;;;4.10;;
14789;SDS011;7486;51.010;10.366;2024-02-26T00:50:26;5.20;;;4.30;;
14789;SDS011;7486;51.010;10.366;2024-02-26T00:53:12;4.67;;;4.07;;
14789;SDS011;7486;51.010;10.366;2024-02-26T00:55:58;5.40;;;4.60;;
14789;SDS011;7486;51.010;10.366;2024-02-26T00:58:43;4.53;;;4.13;;
14789;SDS011;7486;51.010;10.366;2024-02-26T01:01:29;5.07;;;4.10;;
14789;SDS011;7486;51.010;10.366;2024-02-26T01:04:14;4.70;;;4.10;;
14789;SDS011;7486;51.010;10.366;2024-02-26T01:07:01;4.40;;;4.00;;
14789;SDS011;7486;51.010;10.366;2024-02-26T01:09:46;4.93;;;4.43;;
14789;SDS011;7486;51.010;10.366;2024-02-26T01:12:32;5.50;;;4.23;;
14789;SDS011;7486;51.010;10.366;2024-02-26T01:15:19;5.60;;;4.57;;
14789;SDS011;7486;51.010;10.366;2024-02-26T01:18:04;5.47;;;4.43;;
14789;SDS011;7486;51.010;10.366;2024-02-26T01:20:50;4.60;;;4.20;;
14789;SDS011;7486;51.010;10.366;2024-02-26T01:23:35;4.80;;;4.30;;
14789;SDS011;7486;51.010;10.366;2024-02-26T01:26:20;6.47;;;4.40;;
14789;SDS011;7486;51.010;10.366;2024-02-26T01:29:06;4.63;;;3.90;;
14789;SDS011;7486;51.010;10.366;2024-02-26T01:31:52;5.17;;;3.77;;
14789;SDS011;7486;51.010;10.366;2024-02-26T01:34:38;5.40;;;4.40;;
14789;SDS011;7486;51.010;10.366;2024-02-26T01:37:23;5.30;;;4.80;;
14789;SDS011;7486;51.010;10.366;2024-02-26T01:40:09;5.13;;;4.63;;
14789;SDS011;7486;51.010;10.366;2024-02-26T01:42:55;5.10;;;4.60;;
14789;SDS011;7486;51.010;10.366;2024-02-26T01:45:40;5.10;;;4.60;;
14789;SDS011;7486;51.010;10.366;2024-02-26T01:48:26;5.10;;;4.60;;
14789;SDS011;7486;51.010;10.366;2024-02-26T01:51:12;4.80;;;4.33;;
14789;SDS011;7486;51.010;10.366;2024-02-26T01:54:00;6.83;;;4.50;;
14789;SDS011;7486;51.010;10.366;2024-02-26T01:56:47;4.40;;;3.97;;
14789;SDS011;7486;51.010;10.366;2024-02-26T01:59:34;4.47;;;3.87;;
14789;SDS011;7486;51.010;10.366;2024-02-26T02:02:20;4.40;;;4.00;;
14789;SDS011;7486;51.010;10.366;2024-02-26T02:05:05;5.00;;;4.10;;
14789;SDS011;7486;51.010;10.366;2024-02-26T02:07:52;5.23;;;4.57;;
14789;SDS011;7486;51.010;10.366;2024-02-26T02:10:38;4.30;;;3.90;;
14789;SDS011;7486;51.010;10.366;2024-02-26T02:13:24;4.37;;;3.87;;
14789;SDS011;7486;51.010;10.366;2024-02-26T02:16:09;4.80;;;4.27;;
14789;SDS011;7486;51.010;10.366;2024-02-26T02:18:55;5.00;;;4.27;;
14789;SDS011;7486;51.010;10.366;2024-02-26T02:21:41;4.77;;;4.00;;
14789;SDS011;7486;51.010;10.366;2024-02-26T02:24:26;4.13;;;3.73;;
14789;SDS011;7486;51.010;10.366;2024-02-26T02:27:12;4.80;;;4.27;;
14789;SDS011;7486;51.010;10.366;2024-02-26T02:29:58;4.70;;;4.20;;
14789;SDS011;7486;51.010;10.366;2024-02-26T02:32:43;4.60;;;3.80;;
14789;SDS011;7486;51.010;10.366;2024-02-26T02:35:30;4.43;;;3.93;;
14789;SDS011;7486;51.010;10.366;2024-02-26T02:38:16;6.30;;;4.10;;
14789;SDS011;7486;51.010;10.366;2024-02-26T02:41:02;4.80;;;4.13;;
14789;SDS011;7486;51.010;10.366;2024-02-26T02:43:47;4.53;;;3.77;;
14789;SDS011;7486;51.010;10.366;2024-02-26T02:46:32;4.83;;;4.23;;
14789;SDS011;7486;51.010;10.366;2024-02-26T02:49:18;4.77;;;4.27;;
14789;SDS011;7486;51.010;10.366;2024-02-26T02:52:04;6.33;;;4.00;;
14789;SDS011;7486;51.010;10.366;2024-02-26T02:54:50;4.77;;;4.13;;
14789;SDS011;7486;51.010;10.366;2024-02-26T02:57:35;4.30;;;3.90;;
14789;SDS011;7486;51.010;10.366;2024-02-26T03:00:20;4.10;;;3.70;;
14789;SDS011;7486;51.010;10.366;2024-02-26T03:03:06;4.20;;;3.80;;
14789;SDS011;7486;51.010;10.366;2024-02-26T03:05:51;5.57;;;4.17;;
14789;SDS011;7486;51.010;10.366;2024-02-26T03:08:37;5.87;;;3.83;;
14789;SDS011;7486;51.010;10.366;2024-02-26T03:11:22;4.17;;;3.77;;
14789;SDS011;7486;51.010;10.366;2024-02-26T03:14:08;4.40;;;4.00;;
14789;SDS011;7486;51.010;10.366;2024-02-26T03:16:54;4.93;;;4.17;;
14789;SDS011;7486;51.010;10.366;2024-02-26T03:19:40;4.80;;;4.30;;
14789;SDS011;7486;51.010;10.366;2024-02-26T03:22:26;4.63;;;4.13;;
14789;SDS011;7486;51.010;10.366;2024-02-26T03:25:12;4.20;;;3.80;;
14789;SDS011;7486;51.010;10.366;2024-02-26T03:27:57;5.57;;;4.40;;
14789;SDS011;7486;51.010;10.366;2024-02-26T03:30:43;5.83;;;4.60;;
14789;SDS011;7486;51.010;10.366;2024-02-26T03:33:28;4.67;;;4.07;;
14789;SDS011;7486;51.010;10.366;2024-02-26T03:36:14;5.00;;;4.50;;
14789;SDS011;7486;51.010;10.366;2024-02-26T03:39:00;5.17;;;4.67;;
14789;SDS011;7486;51.010;10.366;2024-02-26T03:41:45;4.87;;;4.20;;
14789;SDS011;7486;51.010;10.366;2024-02-26T03:44:31;7.97;;;4.53;;
14789;SDS011;7486;51.010;10.366;2024-02-26T03:47:16;5.00;;;4.50;;
14789;SDS011;7486;51.010;10.366;2024-02-26T03:50:02;5.23;;;4.73;;
14789;SDS011;7486;51.010;10.366;2024-02-26T03:52:48;5.27;;;4.50;;
14789;SDS011;7486;51.010;10.366;2024-02-26T03:55:33;5.70;;;4.30;;
14789;SDS011;7486;51.010;10.366;2024-02-26T03:58:19;7.80;;;4.90;;
14789;SDS011;7486;51.010;10.366;2024-02-26T04:01:07;5.90;;;4.50;;
14789;SDS011;7486;51.010;10.366;2024-02-26T04:03:53;5.80;;;4.77;;
14789;SDS011;7486;51.010;10.366;2024-02-26T04:06:39;5.73;;;4.90;;
14789;SDS011;7486;51.010;10.366;2024-02-26T04:09:24;7.20;;;4.70;;
14789;SDS011;7486;51.010;10.366;2024-02-26T04:12:11;6.43;;;4.87;;
14789;SDS011;7486;51.010;10.366;2024-02-26T04:14:56;5.40;;;4.73;;
14789;SDS011;7486;51.010;10.366;2024-02-26T04:17:42;5.93;;;4.70;;
14789;SDS011;7486;51.010;10.366;2024-02-26T04:20:27;5.23;;;4.73;;
14789;SDS011;7486;51.010;10.366;2024-02-26T04:23:13;5.43;;;4.40;;
14789;SDS011;7486;51.010;10.366;2024-02-26T04:25:58;5.80;;;5.13;;
14789;SDS011;7486;51.010;10.366;2024-02-26T04:28:43;6.37;;;5.63;;
14789;SDS011;7486;51.010;10.366;2024-02-26T04:31:29;5.97;;;4.97;;
14789;SDS011;7486;51.010;10.366;2024-02-26T04:34:14;6.00;;;5.40;;
14789;SDS011;7486;51.010;10.366;2024-02-26T04:37:00;6.23;;;5.63;;
14789;SDS011;7486;51.010;10.366;2024-02-26T04:39:45;5.50;;;5.00;;
14789;SDS011;7486;51.010;10.366;2024-02-26T04:42:35;6.00;;;5.40;;
14789;SDS011;7486;51.010;10.366;2024-02-26T04:45:20;7.03;;;5.77;;
14789;SDS011;7486;51.010;10.366;2024-02-26T04:48:06;8.33;;;5.60;;
14789;SDS011;7486;51.010;10.366;2024-02-26T04:50:51;6.50;;;5.80;;
14789;SDS011;7486;51.010;10.366;2024-02-26T04:53:37;6.20;;;5.70;;
14789;SDS011;7486;51.010;10.366;2024-02-26T04:56:22;6.87;;;5.50;;
14789;SDS011;7486;51.010;10.366;2024-02-26T04:59:08;7.63;;;5.87;;
14789;SDS011;7486;51.010;10.366;2024-02-26T05:01:53;5.63;;;5.13;;
14789;SDS011;7486;51.010;10.366;2024-02-26T05:04:39;5.87;;;5.27;;
14789;SDS011;7486;51.010;10.366;2024-02-26T05:07:25;6.43;;;5.60;;
14789;SDS011;7486;51.010;10.366;2024-02-26T05:10:10;6.00;;;5.40;;
14789;SDS011;7486;51.010;10.366;2024-02-26T05:12:56;6.43;;;5.30;;
14789;SDS011;7486;51.010;10.366;2024-02-26T05:15:41;7.27;;;5.33;;
14789;SDS011;7486;51.010;10.366;2024-02-26T05:18:27;6.00;;;5.37;;
14789;SDS011;7486;51.010;10.366;2024-02-26T05:21:13;6.47;;;5.43;;
14789;SDS011;7486;51.010;10.366;2024-02-26T05:23:58;7.83;;;6.00;;
14789;SDS011;7486;51.010;10.366;2024-02-26T05:26:44;7.97;;;6.63;;
14789;SDS011;7486;51.010;10.366;2024-02-26T05:29:31;7.80;;;6.60;;
14789;SDS011;7486;51.010;10.366;2024-02-26T05:32:16;9.83;;;6.87;;
14789;SDS011;7486;51.010;10.366;2024-02-26T05:35:03;7.73;;;6.83;;
14789;SDS011;7486;51.010;10.366;2024-02-26T05:37:48;8.23;;;6.20;;
14789;SDS011;7486;51.010;10.366;2024-02-26T05:40:35;8.17;;;6.60;;
14789;SDS011;7486;51.010;10.366;2024-02-26T05:43:21;9.77;;;7.20;;
14789;SDS011;7486;51.010;10.366;2024-02-26T05:46:07;8.97;;;6.80;;
14789;SDS011;7486;51.010;10.366;2024-02-26T05:48:52;7.77;;;6.90;;
14789;SDS011;7486;51.010;10.366;2024-02-26T05:51:38;9.00;;;7.37;;
14789;SDS011;7486;51.010;10.366;2024-02-26T05:54:24;9.83;;;7.90;;
14789;SDS011;7486;51.010;10.366;2024-02-26T05:57:09;11.40;;;8.10;;
14789;SDS011;7486;51.010;10.366;2024-02-26T05:59:55;11.03;;;8.60;;
14789;SDS011;7486;51.010;10.366;2024-02-26T06:02:40;6.73;;;6.00;;
14789;SDS011;7486;51.010;10.366;2024-02-26T06:05:25;9.13;;;6.87;;
14789;SDS011;7486;51.010;10.366;2024-02-26T06:08:11;6.17;;;5.57;;
14789;SDS011;7486;51.010;10.366;2024-02-26T06:10:56;7.97;;;6.90;;
14789;SDS011;7486;51.010;10.366;2024-02-26T06:13:42;7.87;;;6.93;;
14789;SDS011;7486;51.010;10.366;2024-02-26T06:16:27;10.77;;;8.60;;
14789;SDS011;7486;51.010;10.366;2024-02-26T06:19:14;10.57;;;8.67;;
14789;SDS011;7486;51.010;10.366;2024-02-26T06:22:00;11.00;;;8.67;;
14789;SDS011;7486;51.010;10.366;2024-02-26T06:24:45;11.97;;;9.17;;
14789;SDS011;7486;51.010;10.366;2024-02-26T06:27:31;12.77;;;9.17;;
14789;SDS011;7486;51.010;10.366;2024-02-26T06:30:16;12.43;;;10.13;;
14789;SDS011;7486;51.010;10.366;2024-02-26T06:33:01;14.47;;;9.67;;
14789;SDS011;7486;51.010;10.366;2024-02-26T06:35:47;12.03;;;9.43;;
14789;SDS011;7486;51.010;10.366;2024-02-26T06:38:33;14.67;;;10.07;;
14789;SDS011;7486;51.010;10.366;2024-02-26T06:41:18;11.50;;;9.57;;
14789;SDS011;7486;51.010;10.366;2024-02-26T06:44:03;14.23;;;10.20;;
14789;SDS011;7486;51.010;10.366;2024-02-26T06:46:50;13.93;;;10.73;;
14789;SDS011;7486;51.010;10.366;2024-02-26T06:49:35;14.20;;;11.23;;
14789;SDS011;7486;51.010;10.366;2024-02-26T06:52:21;16.83;;;12.27;;
14789;SDS011;7486;51.010;10.366;2024-02-26T06:55:06;16.87;;;12.70;;
14789;SDS011;7486;51.010;10.366;2024-02-26T06:57:53;13.47;;;10.50;;
14789;SDS011;7486;51.010;10.366;2024-02-26T07:00:38;13.20;;;9.37;;
14789;SDS011;7486;51.010;10.366;2024-02-26T07:03:24;14.20;;;10.20;;
14789;SDS011;7486;51.010;10.366;2024-02-26T07:06:10;12.83;;;9.43;;
14789;SDS011;7486;51.010;10.366;2024-02-26T07:08:55;11.30;;;9.73;;
14789;SDS011;7486;51.010;10.366;2024-02-26T07:11:41;12.70;;;10.10;;
14789;SDS011;7486;51.010;10.366;2024-02-26T07:14:27;12.57;;;10.33;;
14789;SDS011;7486;51.010;10.366;2024-02-26T07:17:13;13.47;;;10.83;;
14789;SDS011;7486;51.010;10.366;2024-02-26T07:20:00;16.90;;;12.20;;
14789;SDS011;7486;51.010;10.366;2024-02-26T07:22:47;20.27;;;14.60;;
14789;SDS011;7486;51.010;10.366;2024-02-26T07:25:32;20.90;;;15.30;;
14789;SDS011;7486;51.010;10.366;2024-02-26T07:28:18;21.90;;;15.70;;
14789;SDS011;7486;51.010;10.366;2024-02-26T07:31:04;22.47;;;16.13;;
14789;SDS011;7486;51.010;10.366;2024-02-26T07:33:50;22.73;;;15.97;;
14789;SDS011;7486;51.010;10.366;2024-02-26T07:36:36;25.30;;;18.07;;
14789;SDS011;7486;51.010;10.366;2024-02-26T07:39:22;26.60;;;18.30;;
14789;SDS011;7486;51.010;10.366;2024-02-26T07:42:07;26.80;;;18.80;;
14789;SDS011;7486;51.010;10.366;2024-02-26T07:44:54;25.30;;;18.00;;
14789;SDS011;7486;51.010;10.366;2024-02-26T07:47:40;26.70;;;19.03;;
14789;SDS011;7486;51.010;10.366;2024-02-26T07:50:25;27.17;;;19.63;;
14789;SDS011;7486;51.010;10.366;2024-02-26T07:53:11;26.90;;;19.80;;
14789;SDS011;7486;51.010;10.366;2024-02-26T07:55:56;26.23;;;19.47;;
14789;SDS011;7486;51.010;10.366;2024-02-26T07:58:42;21.00;;;16.30;;
14789;SDS011;7486;51.010;10.366;2024-02-26T08:01:27;18.00;;;13.60;;
14789;SDS011;7486;51.010;10.366;2024-02-26T08:04:12;15.77;;;12.73;;
14789;SDS011;7486;51.010;10.366;2024-02-26T08:06:58;21.43;;;15.70;;
14789;SDS011;7486;51.010;10.366;2024-02-26T08:09:44;25.70;;;18.97;;
14789;SDS011;7486;51.010;10.366;2024-02-26T08:12:29;25.20;;;19.37;;
14789;SDS011;7486;51.010;10.366;2024-02-26T08:15:15;25.90;;;19.30;;
14789;SDS011;7486;51.010;10.366;2024-02-26T08:18:00;27.10;;;19.40;;
14789;SDS011;7486;51.010;10.366;2024-02-26T08:20:47;30.00;;;20.43;;
14789;SDS011;7486;51.010;10.366;2024-02-26T08:23:32;27.30;;;20.53;;
14789;SDS011;7486;51.010;10.366;2024-02-26T08:26:18;27.83;;;20.33;;
14789;SDS011;7486;51.010;10.366;2024-02-26T08:29:03;29.13;;;21.13;;
14789;SDS011;7486;51.010;10.366;2024-02-26T08:31:48;28.17;;;19.87;;
14789;SDS011;7486;51.010;10.366;2024-02-26T08:34:35;25.47;;;19.30;;
14789;SDS011;7486;51.010;10.366;2024-02-26T08:37:20;25.87;;;19.87;;
14789;SDS011;7486;51.010;10.366;2024-02-26T08:40:06;26.73;;;19.63;;
14789;SDS011;7486;51.010;10.366;2024-02-26T08:42:56;26.40;;;19.33;;
14789;SDS011;7486;51.010;10.366;2024-02-26T08:45:41;26.50;;;19.73;;
14789;SDS011;7486;51.010;10.366;2024-02-26T08:48:27;27.10;;;20.30;;
14789;SDS011;7486;51.010;10.366;2024-02-26T08:51:13;25.97;;;19.67;;
14789;SDS011;7486;51.010;10.366;2024-02-26T08:53:58;27.57;;;19.50;;
14789;SDS011;7486;51.010;10.366;2024-02-26T08:56:45;25.83;;;19.17;;
14789;SDS011;7486;51.010;10.366;2024-02-26T08:59:31;26.80;;;20.97;;
14789;SDS011;7486;51.010;10.366;2024-02-26T09:02:16;27.13;;;20.40;;
14789;SDS011;7486;51.010;10.366;2024-02-26T09:05:02;29.07;;;20.07;;
14789;SDS011;7486;51.010;10.366;2024-02-26T09:07:47;25.23;;;18.43;;
14789;SDS011;7486;51.010;10.366;2024-02-26T09:10:33;26.40;;;20.20;;
14789;SDS011;7486;51.010;10.366;2024-02-26T09:13:19;29.00;;;21.03;;
14789;SDS011;7486;51.010;10.366;2024-02-26T09:16:05;28.40;;;20.77;;
14789;SDS011;7486;51.010;10.366;2024-02-26T09:18:51;30.47;;;21.80;;
14789;SDS011;7486;51.010;10.366;2024-02-26T09:21:37;28.47;;;21.90;;
14789;SDS011;7486;51.010;10.366;2024-02-26T09:24:27;26.97;;;20.77;;
14789;SDS011;7486;51.010;10.366;2024-02-26T09:27:13;28.80;;;21.83;;
14789;SDS011;7486;51.010;10.366;2024-02-26T09:29:59;26.87;;;20.93;;
14789;SDS011;7486;51.010;10.366;2024-02-26T09:32:47;25.93;;;20.60;;
14789;SDS011;7486;51.010;10.366;2024-02-26T09:35:33;26.97;;;21.47;;
14789;SDS011;7486;51.010;10.366;2024-02-26T09:38:19;26.47;;;21.40;;
14789;SDS011;7486;51.010;10.366;2024-02-26T09:41:05;25.53;;;20.13;;
14789;SDS011;7486;51.010;10.366;2024-02-26T09:43:51;27.20;;;20.57;;
14789;SDS011;7486;51.010;10.366;2024-02-26T09:46:41;26.57;;;20.30;;
14789;SDS011;7486;51.010;10.366;2024-02-26T09:49:28;24.10;;;19.13;;
14789;SDS011;7486;51.010;10.366;2024-02-26T09:52:14;24.40;;;19.43;;
14789;SDS011;7486;51.010;10.366;2024-02-26T09:55:00;25.83;;;20.03;;
14789;SDS011;7486;51.010;10.366;2024-02-26T09:57:46;24.43;;;19.53;;
14789;SDS011;7486;51.010;10.366;2024-02-26T10:00:36;23.23;;;18.43;;
14789;SDS011;7486;51.010;10.366;2024-02-26T10:03:28;22.37;;;19.17;;
14789;SDS011;7486;51.010;10.366;2024-02-26T10:06:22;23.77;;;19.00;;
14789;SDS011;7486;51.010;10.366;2024-02-26T10:09:10;23.53;;;19.57;;
14789;SDS011;7486;51.010;10.366;2024-02-26T10:11:56;23.63;;;19.43;;
14789;SDS011;7486;51.010;10.366;2024-02-26T10:14:42;22.00;;;18.33;;
14789;SDS011;7486;51.010;10.366;2024-02-26T10:17:28;20.40;;;17.67;;
14789;SDS011;7486;51.010;10.366;2024-02-26T10:20:17;21.07;;;17.30;;
14789;SDS011;7486;51.010;10.366;2024-02-26T10:23:04;22.17;;;17.90;;
14789;SDS011;7486;51.010;10.366;2024-02-26T10:25:53;21.13;;;17.10;;
14789;SDS011;7486;51.010;10.366;2024-02-26T10:28:39;21.27;;;17.67;;
14789;SDS011;7486;51.010;10.366;2024-02-26T10:31:26;21.60;;;17.97;;
14789;SDS011;7486;51.010;10.366;2024-02-26T10:34:11;22.80;;;19.50;;
14789;SDS011;7486;51.010;10.366;2024-02-26T10:36:57;21.73;;;18.23;;
14789;SDS011;7486;51.010;10.366;2024-02-26T10:39:46;21.07;;;17.73;;
14789;SDS011;7486;51.010;10.366;2024-02-26T10:42:32;20.10;;;17.93;;
14789;SDS011;7486;51.010;10.366;2024-02-26T10:45:17;22.33;;;18.70;;
14789;SDS011;7486;51.010;10.366;2024-02-26T10:48:02;23.17;;;19.40;;
14789;SDS011;7486;51.010;10.366;2024-02-26T10:50:48;22.17;;;18.97;;
14789;SDS011;7486;51.010;10.366;2024-02-26T10:53:35;22.37;;;18.87;;
14789;SDS011;7486;51.010;10.366;2024-02-26T10:56:22;24.87;;;19.30;;
14789;SDS011;7486;51.010;10.366;2024-02-26T10:59:11;21.83;;;19.27;;
14789;SDS011;7486;51.010;10.366;2024-02-26T11:01:57;22.07;;;18.23;;
14789;SDS011;7486;51.010;10.366;2024-02-26T11:04:44;20.30;;;17.77;;
14789;SDS011;7486;51.010;10.366;2024-02-26T11:07:30;20.20;;;16.40;;
14789;SDS011;7486;51.010;10.366;2024-02-26T11:10:17;20.73;;;17.23;;
14789;SDS011;7486;51.010;10.366;2024-02-26T11:13:02;20.50;;;17.07;;
14789;SDS011;7486;51.010;10.366;2024-02-26T11:15:52;20.77;;;17.53;;
14789;SDS011;7486;51.010;10.366;2024-02-26T11:18:39;19.17;;;16.73;;
14789;SDS011;7486;51.010;10.366;2024-02-26T11:21:27;19.40;;;16.43;;
14789;SDS011;7486;51.010;10.366;2024-02-26T11:24:14;19.00;;;16.37;;
14789;SDS011;7486;51.010;10.366;2024-02-26T11:27:02;18.83;;;16.83;;
14789;SDS011;7486;51.010;10.366;2024-02-26T11:29:51;17.90;;;15.83;;
14789;SDS011;7486;51.010;10.366;2024-02-26T11:32:38;21.67;;;17.50;;
14789;SDS011;7486;51.010;10.366;2024-02-26T11:35:24;21.03;;;17.00;;
14789;SDS011;7486;51.010;10.366;2024-02-26T11:38:12;22.50;;;17.43;;
14789;SDS011;7486;51.010;10.366;2024-02-26T11:41:04;19.93;;;17.13;;
14789;SDS011;7486;51.010;10.366;2024-02-26T11:46:45;19.70;;;17.27;;
14789;SDS011;7486;51.010;10.366;2024-02-26T11:49:31;19.30;;;17.17;;
14789;SDS011;7486;51.010;10.366;2024-02-26T11:52:18;20.00;;;17.10;;
14789;SDS011;7486;51.010;10.366;2024-02-26T11:55:03;19.80;;;16.63;;
14789;SDS011;7486;51.010;10.366;2024-02-26T11:57:49;21.43;;;18.10;;
14789;SDS011;7486;51.010;10.366;2024-02-26T12:00:35;19.40;;;17.10;;
14789;SDS011;7486;51.010;10.366;2024-02-26T12:03:20;20.17;;;17.73;;
14789;SDS011;7486;51.010;10.366;2024-02-26T12:06:07;18.63;;;16.63;;
14789;SDS011;7486;51.010;10.366;2024-02-26T12:08:53;21.97;;;18.47;;
14789;SDS011;7486;51.010;10.366;2024-02-26T12:11:39;20.10;;;17.67;;
14789;SDS011;7486;51.010;10.366;2024-02-26T12:14:26;21.83;;;19.00;;
14789;SDS011;7486;51.010;10.366;2024-02-26T12:17:18;20.43;;;17.73;;
14789;SDS011;7486;51.010;10.366;2024-02-26T12:20:09;19.90;;;17.50;;
14789;SDS011;7486;51.010;10.366;2024-02-26T12:22:58;20.47;;;18.07;;
14789;SDS011;7486;51.010;10.366;2024-02-26T12:25:44;20.47;;;18.27;;
14789;SDS011;7486;51.010;10.366;2024-02-26T12:28:29;22.27;;;17.73;;
14789;SDS011;7486;51.010;10.366;2024-02-26T12:31:15;20.80;;;17.83;;
14789;SDS011;7486;51.010;10.366;2024-02-26T12:34:01;21.30;;;18.37;;
14789;SDS011;7486;51.010;10.366;2024-02-26T12:36:47;20.17;;;17.87;;
14789;SDS011;7486;51.010;10.366;2024-02-26T12:39:32;19.40;;;17.30;;
14789;SDS011;7486;51.010;10.366;2024-02-26T12:42:18;21.30;;;17.97;;
14789;SDS011;7486;51.010;10.366;2024-02-26T12:45:08;20.73;;;17.10;;
14789;SDS011;7486;51.010;10.366;2024-02-26T12:47:57;21.03;;;17.90;;
14789;SDS011;7486;51.010;10.366;2024-02-26T12:50:45;20.47;;;18.13;;
14789;SDS011;7486;51.010;10.366;2024-02-26T12:53:31;21.30;;;17.50;;
14789;SDS011;7486;51.010;10.366;2024-02-26T12:56:17;21.03;;;17.47;;
14789;SDS011;7486;51.010;10.366;2024-02-26T12:59:03;22.03;;;18.13;;
14789;SDS011;7486;51.010;10.366;2024-02-26T13:01:49;21.40;;;17.33;;
14789;SDS011;7486;51.010;10.366;2024-02-26T13:04:34;20.53;;;17.30;;
14789;SDS011;7486;51.010;10.366;2024-02-26T13:07:21;20.20;;;16.70;;
14789;SDS011;7486;51.010;10.366;2024-02-26T13:10:07;19.70;;;16.20;;
14789;SDS011;7486;51.010;10.366;2024-02-26T13:12:53;20.00;;;17.57;;
14789;SDS011;7486;51.010;10.366;2024-02-26T13:15:38;20.40;;;17.20;;
14789;SDS011;7486;51.010;10.366;2024-02-26T13:18:27;19.80;;;16.67;;
14789;SDS011;7486;51.010;10.366;2024-02-26T13:21:13;20.27;;;16.97;;
14789;SDS011;7486;51.010;10.366;2024-02-26T13:24:00;19.53;;;16.63;;
14789;SDS011;7486;51.010;10.366;2024-02-26T13:26:46;19.67;;;16.70;;
14789;SDS011;7486;51.010;10.366;2024-02-26T13:29:32;20.00;;;16.83;;
14789;SDS011;7486;51.010;10.366;2024-02-26T13:32:17;19.93;;;17.47;;
14789;SDS011;7486;51.010;10.366;2024-02-26T13:37:52;20.13;;;17.97;;
14789;SDS011;7486;51.010;10.366;2024-02-26T13:40:38;20.50;;;18.07;;
14789;SDS011;7486;51.010;10.366;2024-02-26T13:43:24;20.80;;;17.73;;
14789;SDS011;7486;51.010;10.366;2024-02-26T13:46:09;21.17;;;17.20;;
14789;SDS011;7486;51.010;10.366;2024-02-26T13:48:55;20.70;;;18.17;;
14789;SDS011;7486;51.010;10.366;2024-02-26T13:51:41;22.47;;;18.60;;
14789;SDS011;7486;51.010;10.366;2024-02-26T13:54:26;21.47;;;18.40;;
14789;SDS011;7486;51.010;10.366;2024-02-26T13:57:12;19.37;;;17.37;;
14789;SDS011;7486;51.010;10.366;2024-02-26T13:59:58;19.93;;;17.83;;
14789;SDS011;7486;51.010;10.366;2024-02-26T14:02:43;21.47;;;18.60;;
14789;SDS011;7486;51.010;10.366;2024-02-26T14:05:29;21.63;;;19.00;;
14789;SDS011;7486;51.010;10.366;2024-02-26T14:08:15;21.17;;;18.77;;
14789;SDS011;7486;51.010;10.366;2024-02-26T14:11:01;21.03;;;18.37;;
14789;SDS011;7486;51.010;10.366;2024-02-26T14:13:46;22.20;;;18.33;;
14789;SDS011;7486;51.010;10.366;2024-02-26T14:16:32;21.27;;;18.80;;
14789;SDS011;7486;51.010;10.366;2024-02-26T14:19:17;22.23;;;18.90;;
14789;SDS011;7486;51.010;10.366;2024-02-26T14:22:02;21.70;;;18.73;;
14789;SDS011;7486;51.010;10.366;2024-02-26T14:24:48;20.70;;;18.10;;
14789;SDS011;7486;51.010;10.366;2024-02-26T14:27:34;21.83;;;18.83;;
14789;SDS011;7486;51.010;10.366;2024-02-26T14:30:19;22.53;;;19.17;;
14789;SDS011;7486;51.010;10.366;2024-02-26T14:33:05;23.80;;;19.53;;
14789;SDS011;7486;51.010;10.366;2024-02-26T14:35:50;22.33;;;19.67;;
14789;SDS011;7486;51.010;10.366;2024-02-26T14:38:36;22.90;;;19.70;;
14789;SDS011;7486;51.010;10.366;2024-02-26T14:41:21;25.13;;;20.13;;
14789;SDS011;7486;51.010;10.366;2024-02-26T14:44:07;23.30;;;19.57;;
14789;SDS011;7486;51.010;10.366;2024-02-26T14:46:53;24.50;;;19.63;;
14789;SDS011;7486;51.010;10.366;2024-02-26T14:49:38;23.00;;;19.63;;
14789;SDS011;7486;51.010;10.366;2024-02-26T14:52:24;21.80;;;19.50;;
14789;SDS011;7486;51.010;10.366;2024-02-26T14:55:10;22.20;;;19.37;;
14789;SDS011;7486;51.010;10.366;2024-02-26T14:57:55;23.10;;;19.63;;
14789;SDS011;7486;51.010;10.366;2024-02-26T15:00:41;21.87;;;19.30;;
14789;SDS011;7486;51.010;10.366;2024-02-26T15:03:27;23.30;;;19.43;;
14789;SDS011;7486;51.010;10.366;2024-02-26T15:06:13;22.67;;;19.57;;
14789;SDS011;7486;51.010;10.366;2024-02-26T15:08:58;21.63;;;19.20;;
14789;SDS011;7486;51.010;10.366;2024-02-26T15:11:44;23.23;;;19.67;;
14789;SDS011;7486;51.010;10.366;2024-02-26T15:14:29;21.77;;;18.87;;
14789;SDS011;7486;51.010;10.366;2024-02-26T15:17:15;20.37;;;18.17;;
14789;SDS011;7486;51.010;10.366;2024-02-26T15:20:00;23.10;;;19.40;;
14789;SDS011;7486;51.010;10.366;2024-02-26T15:22:46;22.00;;;18.90;;
14789;SDS011;7486;51.010;10.366;2024-02-26T15:25:32;22.57;;;18.63;;
14789;SDS011;7486;51.010;10.366;2024-02-26T15:28:18;20.40;;;18.20;;
14789;SDS011;7486;51.010;10.366;2024-02-26T15:31:03;23.80;;;18.57;;
14789;SDS011;7486;51.010;10.366;2024-02-26T15:33:49;20.57;;;18.27;;
14789;SDS011;7486;51.010;10.366;2024-02-26T15:36:34;21.17;;;18.30;;
14789;SDS011;7486;51.010;10.366;2024-02-26T15:39:20;20.97;;;18.17;;
14789;SDS011;7486;51.010;10.366;2024-02-26T15:42:06;21.70;;;18.90;;
14789;SDS011;7486;51.010;10.366;2024-02-26T15:44:51;22.23;;;19.33;;
14789;SDS011;7486;51.010;10.366;2024-02-26T15:47:37;20.93;;;18.73;;
14789;SDS011;7486;51.010;10.366;2024-02-26T15:50:23;21.77;;;19.23;;
14789;SDS011;7486;51.010;10.366;2024-02-26T15:53:08;24.17;;;19.80;;
14789;SDS011;7486;51.010;10.366;2024-02-26T15:55:54;21.70;;;19.20;;
14789;SDS011;7486;51.010;10.366;2024-02-26T15:58:40;21.77;;;19.47;;
14789;SDS011;7486;51.010;10.366;2024-02-26T16:01:25;24.93;;;20.53;;
14789;SDS011;7486;51.010;10.366;2024-02-26T16:04:14;23.33;;;20.10;;
14789;SDS011;7486;51.010;10.366;2024-02-26T16:07:01;21.97;;;19.60;;
14789;SDS011;7486;51.010;10.366;2024-02-26T16:09:54;22.97;;;20.20;;
14789;SDS011;7486;51.010;10.366;2024-02-26T16:12:41;20.40;;;18.27;;
14789;SDS011;7486;51.010;10.366;2024-02-26T16:15:29;19.90;;;17.53;;
14789;SDS011;7486;51.010;10.366;2024-02-26T16:18:15;20.47;;;18.27;;
14789;SDS011;7486;51.010;10.366;2024-02-26T16:21:01;20.03;;;17.10;;
14789;SDS011;7486;51.010;10.366;2024-02-26T16:23:46;20.03;;;17.00;;
14789;SDS011;7486;51.010;10.366;2024-02-26T16:26:32;19.03;;;16.73;;